createdAt,value
2023-04-05T00:00:22.392Z,48.88
2023-04-05T00:02:30.046Z,49.63
2023-04-05T00:04:34.898Z,56.72
2023-04-05T00:06:40.196Z,46.03
2023-04-05T00:08:44.544Z,50.05
2023-04-05T00:10:47.132Z,51.97
2023-04-05T00:12:51.091Z,46.97
2023-04-05T00:14:53.714Z,44.55
2023-04-05T00:16:56.635Z,51.15
2023-04-05T00:19:00.422Z,53.65
2023-04-05T00:21:03.308Z,52.53
2023-04-05T00:23:07.042Z,45.72
2023-04-05T00:25:10.022Z,52.83
2023-04-05T00:27:12.719Z,61.53
2023-04-05T00:29:15.483Z,69.90
2023-04-05T00:31:18.839Z,76.10
2023-04-05T00:33:21.486Z,69.68
2023-04-05T00:35:28.438Z,78.60
2023-04-05T00:37:31.054Z,87.80
2023-04-05T00:39:33.707Z,88.45
2023-04-05T00:41:36.985Z,80.72
2023-04-05T00:43:39.740Z,87.45
2023-04-05T00:45:42.845Z,70.57
2023-04-05T00:47:45.758Z,109.85
2023-04-05T00:49:48.527Z,119.15
2023-04-05T00:51:51.209Z,107.00
2023-04-05T00:53:54.637Z,92.85
2023-04-05T00:55:58.326Z,108.50
2023-04-05T00:58:01.240Z,99.53
2023-04-05T01:00:09.617Z,135.63
2023-04-05T01:02:32.075Z,110.70
2023-04-05T01:04:37.037Z,149.13
2023-04-05T01:06:51.040Z,91.32
2023-04-05T01:09:08.895Z,98.50
2023-04-05T01:11:13.653Z,108.90
2023-04-05T01:13:17.674Z,81.07
2023-04-05T01:15:20.836Z,91.97
2023-04-05T01:17:28.551Z,87.40
2023-04-05T01:19:31.535Z,91.18
2023-04-05T01:21:39.979Z,99.22
2023-04-05T01:24:10.111Z,99.05
2023-04-05T01:26:46.856Z,108.47
2023-04-05T01:29:18.004Z,122.57
2023-04-05T01:31:29.632Z,100.35
2023-04-05T01:33:44.365Z,91.85
2023-04-05T01:36:10.447Z,92.50
2023-04-05T01:38:19.340Z,89.30
2023-04-05T01:40:23.283Z,104.05
2023-04-05T01:42:26.829Z,110.63
2023-04-05T01:44:30.204Z,107.78
2023-04-05T01:46:33.041Z,87.78
2023-04-05T01:48:35.809Z,124.53
2023-04-05T01:50:38.959Z,115.38
2023-04-05T01:52:42.611Z,103.32
2023-04-05T01:54:45.558Z,125.05
2023-04-05T01:56:48.247Z,112.65
2023-04-05T01:58:51.341Z,99.18
2023-04-05T02:00:57.706Z,125.80
2023-04-05T02:03:00.586Z,111.82
2023-04-05T02:05:03.348Z,144.25
2023-04-05T02:07:06.309Z,132.15
2023-04-05T02:09:09.034Z,105.20
2023-04-05T02:11:11.798Z,118.47
2023-04-05T02:13:14.576Z,128.23
2023-04-05T02:15:17.365Z,119.70
2023-04-05T02:17:20.151Z,119.97
2023-04-05T02:19:23.898Z,102.93
2023-04-05T02:21:26.936Z,121.10
2023-04-05T02:23:30.733Z,111.97
2023-04-05T02:25:33.487Z,110.35
2023-04-05T02:27:37.597Z,105.95
2023-04-05T02:29:40.379Z,95.50
2023-04-05T02:31:43.137Z,103.78
2023-04-05T02:33:45.847Z,112.43
2023-04-05T02:35:51.921Z,117.07
2023-04-05T02:37:54.873Z,102.70
2023-04-05T02:39:57.442Z,105.82
2023-04-05T02:42:00.220Z,92.22
2023-04-05T02:44:03.273Z,83.82
2023-04-05T02:46:06.117Z,98.22
2023-04-05T02:48:09.027Z,73.68
2023-04-05T02:50:11.819Z,79.93
2023-04-05T02:52:15.278Z,79.60
2023-04-05T02:54:17.940Z,93.78
2023-04-05T02:56:22.280Z,82.95
2023-04-05T02:58:25.093Z,97.63
2023-04-05T03:00:28.403Z,101.75
2023-04-05T03:02:31.723Z,93.75
2023-04-05T03:04:34.692Z,102.50
2023-04-05T03:06:38.619Z,94.43
2023-04-05T03:08:46.660Z,100.13
2023-04-05T03:10:51.807Z,101.32
2023-04-05T03:12:54.557Z,101.00
2023-04-05T03:14:57.183Z,119.57
2023-04-05T03:16:59.909Z,86.63
2023-04-05T03:19:02.725Z,105.75
2023-04-05T03:21:06.202Z,90.32
2023-04-05T03:23:09.547Z,103.10
2023-04-05T03:25:12.209Z,99.47
2023-04-05T03:27:15.914Z,114.03
2023-04-05T03:29:18.583Z,97.30
2023-04-05T03:31:21.849Z,83.85
2023-04-05T03:33:24.892Z,90.85
2023-04-05T03:35:31.285Z,100.30
2023-04-05T03:37:33.957Z,114.15
2023-04-05T03:39:37.104Z,88.32
2023-04-05T03:41:40.712Z,94.40
2023-04-05T03:43:43.379Z,91.13
2023-04-05T03:45:46.212Z,68.63
2023-04-05T03:47:48.933Z,82.93
2023-04-05T03:49:51.671Z,93.07
2023-04-05T03:51:54.454Z,133.48
2023-04-05T03:53:57.113Z,112.95
2023-04-05T03:55:59.844Z,86.28
2023-04-05T03:58:02.645Z,104.80
2023-04-05T04:00:15.148Z,108.63
2023-04-05T04:02:17.923Z,65.38
2023-04-05T04:04:21.176Z,93.35
2023-04-05T04:06:27.447Z,73.00
2023-04-05T04:08:30.838Z,103.78
2023-04-05T04:10:35.200Z,110.75
2023-04-05T04:12:38.796Z,80.45
2023-04-05T04:14:41.535Z,87.60
2023-04-05T04:16:44.176Z,72.25
2023-04-05T04:18:46.908Z,84.90
2023-04-05T04:20:49.703Z,87.93
2023-04-05T04:22:54.090Z,79.53
2023-04-05T04:24:56.821Z,93.80
2023-04-05T04:26:59.622Z,87.60
2023-04-05T04:29:03.541Z,105.28
2023-04-05T04:31:09.325Z,89.00
2023-04-05T04:33:12.157Z,91.63
2023-04-05T04:35:21.007Z,73.53
2023-04-05T04:37:30.326Z,69.95
2023-04-05T04:39:33.101Z,100.13
2023-04-05T04:41:38.416Z,87.25
2023-04-05T04:43:44.918Z,96.32
2023-04-05T04:45:48.643Z,117.78
2023-04-05T04:47:53.879Z,128.38
2023-04-05T04:49:57.589Z,116.40
2023-04-05T04:52:00.464Z,100.63
2023-04-05T04:54:03.228Z,109.85
2023-04-05T04:56:09.248Z,99.32
2023-04-05T04:58:13.880Z,139.95
2023-04-05T05:00:17.020Z,108.63
2023-04-05T05:02:24.305Z,112.03
2023-04-05T05:04:27.110Z,100.13
2023-04-05T05:06:30.089Z,97.88
2023-04-05T05:08:32.893Z,126.25
2023-04-05T05:10:36.015Z,104.50
2023-04-05T05:12:39.306Z,100.57
2023-04-05T05:14:42.149Z,117.78
2023-04-05T05:16:44.875Z,89.47
2023-04-05T05:18:48.742Z,90.25
2023-04-05T05:20:52.365Z,90.82
2023-04-05T05:22:55.809Z,100.45
2023-04-05T05:24:58.396Z,83.55
2023-04-05T05:27:01.039Z,112.25
2023-04-05T05:29:04.384Z,86.03
2023-04-05T05:31:07.081Z,81.22
2023-04-05T05:33:10.081Z,100.57
2023-04-05T05:35:12.811Z,95.53
2023-04-05T05:37:16.840Z,94.00
2023-04-05T05:39:20.764Z,79.55
2023-04-05T05:41:24.337Z,92.30
2023-04-05T05:43:27.195Z,98.25
2023-04-05T05:45:29.975Z,94.35
2023-04-05T05:47:32.994Z,87.32
2023-04-05T05:49:35.905Z,118.20
2023-04-05T05:51:38.558Z,123.35
2023-04-05T05:53:41.315Z,115.75
2023-04-05T05:55:44.026Z,102.82
2023-04-05T05:57:46.860Z,104.72
2023-04-05T05:59:49.510Z,82.63
2023-04-05T06:01:52.447Z,98.55
2023-04-05T06:03:55.628Z,77.35
2023-04-05T06:06:00.034Z,83.40
2023-04-05T06:08:04.128Z,74.13
2023-04-05T06:10:07.809Z,97.60
2023-04-05T06:12:11.466Z,87.28
2023-04-05T06:14:14.209Z,88.70
2023-04-05T06:16:17.321Z,109.35
2023-04-05T06:18:21.795Z,89.53
2023-04-05T06:20:24.800Z,96.90
2023-04-05T06:22:27.786Z,96.53
2023-04-05T06:24:32.288Z,106.97
2023-04-05T06:26:35.397Z,101.88
2023-04-05T06:28:38.260Z,92.95
2023-04-05T06:30:41.323Z,97.63
2023-04-05T06:32:44.548Z,111.10
2023-04-05T06:34:49.275Z,97.30
2023-04-05T06:36:52.160Z,127.80
2023-04-05T06:38:54.882Z,123.53
2023-04-05T06:40:57.514Z,132.70
2023-04-05T06:43:00.412Z,137.38
2023-04-05T06:45:04.513Z,167.23
2023-04-05T06:47:07.244Z,133.38
2023-04-05T06:49:10.136Z,143.63
2023-04-05T06:51:12.867Z,130.40
2023-04-05T06:53:19.904Z,118.10
2023-04-05T06:55:22.593Z,142.20
2023-04-05T06:57:25.466Z,144.52
2023-04-05T06:59:30.743Z,133.68
2023-04-05T07:01:37.257Z,130.48
2023-04-05T07:03:40.124Z,157.60
2023-04-05T07:05:50.945Z,132.05
2023-04-05T07:07:53.684Z,139.15
2023-04-05T07:09:56.741Z,124.00
2023-04-05T07:12:00.235Z,146.20
2023-04-05T07:14:02.987Z,126.07
2023-04-05T07:16:05.946Z,134.32
2023-04-05T07:18:08.843Z,122.95
2023-04-05T07:20:12.169Z,142.55
2023-04-05T07:22:14.902Z,133.00
2023-04-05T07:24:17.575Z,153.18
2023-04-05T07:26:20.344Z,117.90
2023-04-05T07:28:23.178Z,129.07
2023-04-05T07:30:29.213Z,114.00
2023-04-05T07:32:31.951Z,111.55
2023-04-05T07:34:36.829Z,137.35
2023-04-05T07:36:39.641Z,138.98
2023-04-05T07:38:42.507Z,126.93
2023-04-05T07:40:45.177Z,118.40
2023-04-05T07:42:47.910Z,122.90
2023-04-05T07:44:50.610Z,141.32
2023-04-05T07:46:53.369Z,126.68
2023-04-05T07:48:56.240Z,128.75
2023-04-05T07:51:04.343Z,130.25
2023-04-05T07:53:08.430Z,134.85
2023-04-05T07:55:11.121Z,121.90
2023-04-05T07:57:19.133Z,117.35
2023-04-05T07:59:22.338Z,110.30
2023-04-05T08:01:28.116Z,91.35
2023-04-05T08:03:32.402Z,108.43
2023-04-05T08:05:35.156Z,110.72
2023-04-05T08:07:37.901Z,97.75
2023-04-05T08:09:40.749Z,110.10
2023-04-05T08:11:43.730Z,88.25
2023-04-05T08:13:47.094Z,73.63
2023-04-05T08:15:49.748Z,104.35
2023-04-05T08:17:52.828Z,89.93
2023-04-05T08:19:55.696Z,77.70
2023-04-05T08:21:58.374Z,107.68
2023-04-05T08:24:01.145Z,82.47
2023-04-05T08:26:04.213Z,84.45
2023-04-05T08:28:06.961Z,82.13
2023-04-05T08:30:10.422Z,73.57
2023-04-05T08:32:13.269Z,75.60
2023-04-05T08:34:16.084Z,84.50
2023-04-05T08:36:18.741Z,80.30
2023-04-05T08:38:21.812Z,79.53
2023-04-05T08:40:33.535Z,78.15
2023-04-05T08:42:42.415Z,76.57
2023-04-05T08:44:46.746Z,66.32
2023-04-05T08:46:50.827Z,60.53
2023-04-05T08:48:53.689Z,75.88
2023-04-05T08:50:56.541Z,93.03
2023-04-05T08:52:59.123Z,63.95
2023-04-05T08:55:01.754Z,72.75
2023-04-05T08:57:07.421Z,63.50
2023-04-05T08:59:11.812Z,65.85
2023-04-05T09:01:15.312Z,60.75
2023-04-05T09:03:24.361Z,46.95
2023-04-05T09:05:27.566Z,56.70
2023-04-05T09:07:31.625Z,69.00
2023-04-05T09:09:38.082Z,62.75
2023-04-05T09:11:41.086Z,71.20
2023-04-05T09:13:43.808Z,66.72
2023-04-05T09:15:47.045Z,72.72
2023-04-05T09:17:50.928Z,65.95
2023-04-05T09:19:53.554Z,55.33
2023-04-05T09:22:04.050Z,75.90
2023-04-05T09:24:07.129Z,65.23
2023-04-05T09:26:25.942Z,79.82
2023-04-05T09:28:42.659Z,84.07
2023-04-05T09:30:48.546Z,106.15
2023-04-05T09:32:53.282Z,68.63
2023-04-05T09:35:01.594Z,70.78
2023-04-05T09:37:16.356Z,76.95
2023-04-05T09:39:23.357Z,42.88
2023-04-05T09:41:26.656Z,67.05
2023-04-05T09:43:43.019Z,51.15
2023-04-05T09:45:46.366Z,66.28
2023-04-05T09:47:57.676Z,74.53
2023-04-05T09:50:06.612Z,49.88
2023-04-05T09:52:41.473Z,86.70
2023-04-05T09:54:44.167Z,69.18
2023-04-05T09:56:57.090Z,85.57
2023-04-05T09:59:01.939Z,52.13
2023-04-05T10:01:16.250Z,64.18
2023-04-05T10:03:21.211Z,58.20
2023-04-05T10:05:26.053Z,66.95
2023-04-05T10:07:29.578Z,77.55
2023-04-05T10:09:35.533Z,73.15
2023-04-05T10:11:39.883Z,60.28
2023-04-05T10:13:42.863Z,65.20
2023-04-05T10:15:47.719Z,63.03
2023-04-05T10:18:00.954Z,74.80
2023-04-05T10:20:28.333Z,64.05
2023-04-05T10:22:41.272Z,65.40
2023-04-05T10:24:53.033Z,65.78
2023-04-05T10:27:05.780Z,70.57
2023-04-05T10:29:35.896Z,83.47
2023-04-05T10:32:21.886Z,74.57
2023-04-05T10:35:13.992Z,80.57
2023-04-05T10:37:48.508Z,73.38
2023-04-05T10:39:51.964Z,94.47
2023-04-05T10:42:22.178Z,98.32
2023-04-05T10:44:26.692Z,76.00
2023-04-05T10:46:31.959Z,80.13
2023-04-05T10:48:52.574Z,86.55
2023-04-05T10:50:57.222Z,70.18
2023-04-05T10:53:01.139Z,81.40
2023-04-05T10:55:04.970Z,70.78
2023-04-05T10:57:10.410Z,73.03
2023-04-05T10:59:14.274Z,64.07
2023-04-05T11:01:19.039Z,75.68
2023-04-05T11:03:50.781Z,62.83
2023-04-05T11:06:20.561Z,86.40
2023-04-05T11:08:23.986Z,64.82
2023-04-05T11:10:28.376Z,87.72
2023-04-05T11:12:48.766Z,82.20
2023-04-05T11:14:52.765Z,77.90
2023-04-05T11:17:00.227Z,75.65
2023-04-05T11:19:03.016Z,79.72
2023-04-05T11:21:08.832Z,96.80
2023-04-05T11:23:13.739Z,88.35
2023-04-05T11:25:24.788Z,76.97
2023-04-05T11:27:29.358Z,68.43
2023-04-05T11:29:50.753Z,75.68
2023-04-05T11:32:01.470Z,71.68
2023-04-05T11:34:10.680Z,67.07
2023-04-05T11:36:15.665Z,65.50
2023-04-05T11:38:23.553Z,66.43
2023-04-05T11:40:37.638Z,53.55
2023-04-05T11:42:41.409Z,73.63
2023-04-05T11:44:49.272Z,68.68
2023-04-05T11:46:54.595Z,78.30
2023-04-05T11:48:57.562Z,77.78
2023-04-05T11:51:00.797Z,84.22
2023-04-05T11:53:19.135Z,77.55
2023-04-05T11:55:27.249Z,86.35
2023-04-05T11:57:29.902Z,90.90
2023-04-05T11:59:36.015Z,85.25
2023-04-05T12:01:39.858Z,77.10
2023-04-05T12:03:42.621Z,69.65
2023-04-05T12:05:53.305Z,60.53
2023-04-05T12:07:58.126Z,76.28
2023-04-05T12:10:03.563Z,74.00
2023-04-05T12:12:17.275Z,74.10
2023-04-05T12:14:23.939Z,69.88
2023-04-05T12:16:27.036Z,68.90
2023-04-05T12:18:32.835Z,66.15
2023-04-05T12:20:35.682Z,52.92
2023-04-05T12:22:40.595Z,61.28
2023-04-05T12:24:43.953Z,66.32
2023-04-05T12:26:47.055Z,68.10
2023-04-05T12:29:00.427Z,60.85
2023-04-05T12:31:03.782Z,60.85
2023-04-05T12:33:10.037Z,66.13
2023-04-05T12:35:18.554Z,62.30
2023-04-05T12:37:21.829Z,59.72
2023-04-05T12:39:29.697Z,67.75
2023-04-05T12:41:33.099Z,79.90
2023-04-05T12:43:41.213Z,48.45
2023-04-05T12:45:44.650Z,72.05
2023-04-05T12:47:57.964Z,62.15
2023-04-05T12:50:11.921Z,74.32
2023-04-05T12:52:21.361Z,56.92
2023-04-05T12:54:24.732Z,58.25
2023-04-05T12:56:30.575Z,65.30
2023-04-05T12:58:36.515Z,60.80
2023-04-05T13:00:39.292Z,60.97
2023-04-05T13:02:41.992Z,60.42
2023-04-05T13:04:45.735Z,83.88
2023-04-05T13:06:48.620Z,77.75
2023-04-05T13:08:52.784Z,65.07
2023-04-05T13:10:57.903Z,68.68
2023-04-05T13:13:01.389Z,83.80
2023-04-05T13:15:04.547Z,73.22
2023-04-05T13:17:07.277Z,63.53
2023-04-05T13:19:09.938Z,75.35
2023-04-05T13:21:12.643Z,62.50
2023-04-05T13:23:15.241Z,76.60
2023-04-05T13:25:17.907Z,52.55
2023-04-05T13:27:21.869Z,48.20
2023-04-05T13:29:24.569Z,58.38
2023-04-05T13:31:27.658Z,69.60
2023-04-05T13:33:30.398Z,66.93
2023-04-05T13:35:33.313Z,60.78
2023-04-05T13:37:36.290Z,74.05
2023-04-05T13:39:38.988Z,54.15
2023-04-05T13:41:41.631Z,64.47
2023-04-05T13:43:44.285Z,74.63
2023-04-05T13:45:47.052Z,64.53
2023-04-05T13:47:49.938Z,70.85
2023-04-05T13:49:52.623Z,68.80
2023-04-05T13:51:55.313Z,63.22
2023-04-05T13:53:58.322Z,73.65
2023-04-05T13:56:00.958Z,60.55
2023-04-05T13:58:03.554Z,59.20
2023-04-05T14:00:07.174Z,55.00
2023-04-05T14:02:11.850Z,62.80
2023-04-05T14:04:15.747Z,73.18
2023-04-05T14:06:18.447Z,65.43
2023-04-05T14:08:21.113Z,60.75
2023-04-05T14:10:24.164Z,73.00
2023-04-05T14:12:26.648Z,60.90
2023-04-05T14:14:29.686Z,63.42
2023-04-05T14:16:32.590Z,74.18
2023-04-05T14:18:35.297Z,74.93
2023-04-05T14:20:38.055Z,58.83
2023-04-05T14:22:40.858Z,60.42
2023-04-05T14:24:43.548Z,57.40
2023-04-05T14:26:49.600Z,57.28
2023-04-05T14:28:53.118Z,58.72
2023-04-05T14:30:55.937Z,66.80
2023-04-05T14:32:58.905Z,67.45
2023-04-05T14:35:01.683Z,52.50
2023-04-05T14:37:06.200Z,64.10
2023-04-05T14:39:08.806Z,85.50
2023-04-05T14:41:11.799Z,59.85
2023-04-05T14:43:14.401Z,63.05
2023-04-05T14:45:17.743Z,69.05
2023-04-05T14:47:20.485Z,62.00
2023-04-05T14:49:23.270Z,65.03
2023-04-05T14:51:27.019Z,67.20
2023-04-05T14:53:30.070Z,61.00
2023-04-05T14:55:32.843Z,67.72
2023-04-05T14:57:35.527Z,59.13
2023-04-05T14:59:38.228Z,55.95
2023-04-05T15:01:44.502Z,64.70
2023-04-05T15:03:48.550Z,61.33
2023-04-05T15:05:51.555Z,71.40
2023-04-05T15:07:54.213Z,69.93
2023-04-05T15:09:56.828Z,85.50
2023-04-05T15:11:59.808Z,74.47
2023-04-05T15:14:02.460Z,61.22
2023-04-05T15:16:05.877Z,65.72
2023-04-05T15:18:08.654Z,62.17
2023-04-05T15:20:11.660Z,75.22
2023-04-05T15:22:15.688Z,63.45
2023-04-05T15:24:18.372Z,74.57
2023-04-05T15:26:21.801Z,68.68
2023-04-05T15:28:24.534Z,63.03
2023-04-05T15:30:27.326Z,62.80
2023-04-05T15:32:33.997Z,59.60
2023-04-05T15:34:36.760Z,67.03
2023-04-05T15:36:39.766Z,39.28
2023-04-05T15:38:42.406Z,54.28
2023-04-05T15:40:47.922Z,58.78
2023-04-05T15:42:50.547Z,47.53
2023-04-05T15:44:53.556Z,51.05
2023-04-05T15:46:56.425Z,56.05
2023-04-05T15:48:59.584Z,63.38
2023-04-05T15:51:02.648Z,75.60
2023-04-05T15:53:05.850Z,60.55
2023-04-05T15:55:08.864Z,51.80
2023-04-05T15:57:12.110Z,60.83
2023-04-05T15:59:15.006Z,45.05
2023-04-05T16:01:17.831Z,56.55
2023-04-05T16:03:20.630Z,45.03
2023-04-05T16:05:23.717Z,46.20
2023-04-05T16:07:26.766Z,39.83
2023-04-05T16:09:30.225Z,45.50
2023-04-05T16:11:33.215Z,55.03
2023-04-05T16:13:36.243Z,62.33
2023-04-05T16:15:38.984Z,48.30
2023-04-05T16:17:41.678Z,52.80
2023-04-05T16:19:44.368Z,51.53
2023-04-05T16:21:47.050Z,47.80
2023-04-05T16:23:49.768Z,41.13
2023-04-05T16:25:52.486Z,48.83
2023-04-05T16:27:55.318Z,31.42
2023-04-05T16:29:57.899Z,40.75
2023-04-05T16:32:00.866Z,45.40
2023-04-05T16:34:03.854Z,43.60
2023-04-05T16:36:06.656Z,41.25
2023-04-05T16:38:09.352Z,38.05
2023-04-05T16:40:12.757Z,35.80
2023-04-05T16:42:15.661Z,36.92
2023-04-05T16:44:18.256Z,35.63
2023-04-05T16:46:21.045Z,39.10
2023-04-05T16:48:23.799Z,44.00
2023-04-05T16:50:26.541Z,36.85
2023-04-05T16:52:29.259Z,26.13
2023-04-05T16:54:32.367Z,36.35
2023-04-05T16:56:35.218Z,36.83
2023-04-05T16:58:37.939Z,35.33
2023-04-05T17:00:40.623Z,42.97
2023-04-05T17:02:43.414Z,29.95
2023-04-05T17:04:46.654Z,26.45
2023-04-05T17:06:49.624Z,40.20
2023-04-05T17:08:52.344Z,32.22
2023-04-05T17:10:55.062Z,40.83
2023-04-05T17:12:57.946Z,47.63
2023-04-05T17:15:00.953Z,38.97
2023-04-05T17:17:03.682Z,43.10
2023-04-05T17:19:06.494Z,34.30
2023-04-05T17:21:09.575Z,34.58
2023-04-05T17:23:13.025Z,51.95
2023-04-05T17:25:16.368Z,47.15
2023-04-05T17:27:19.540Z,34.03
2023-04-05T17:29:22.185Z,53.38
2023-04-05T17:31:26.718Z,39.50
2023-04-05T17:33:29.668Z,44.60
2023-04-05T17:35:33.149Z,31.88
2023-04-05T17:37:36.178Z,42.70
2023-04-05T17:39:39.538Z,42.78
2023-04-05T17:41:42.513Z,46.50
2023-04-05T17:43:45.328Z,44.30
2023-04-05T17:45:48.071Z,48.10
2023-04-05T17:47:51.040Z,48.40
2023-04-05T17:49:53.988Z,31.90
2023-04-05T17:51:56.763Z,25.52
2023-04-05T17:53:59.927Z,30.08
2023-04-05T17:56:02.898Z,31.67
2023-04-05T17:58:06.016Z,41.42
2023-04-05T18:00:10.830Z,41.83
2023-04-05T18:02:13.651Z,44.95
2023-04-05T18:04:16.556Z,28.42
2023-04-05T18:06:20.194Z,35.10
2023-04-05T18:08:24.239Z,33.45
2023-04-05T18:10:27.111Z,34.25
2023-04-05T18:12:29.864Z,43.85
2023-04-05T18:14:32.688Z,31.13
2023-04-05T18:16:35.763Z,34.55
2023-04-05T18:18:38.518Z,44.85
2023-04-05T18:20:41.117Z,36.63
2023-04-05T18:22:43.865Z,50.50
2023-04-05T18:24:46.595Z,33.97
2023-04-05T18:26:49.242Z,40.55
2023-04-05T18:28:57.932Z,45.72
2023-04-05T18:31:00.889Z,37.15
2023-04-05T18:33:03.615Z,44.15
2023-04-05T18:35:07.681Z,46.47
2023-04-05T18:37:10.496Z,40.13
2023-04-05T18:39:13.113Z,36.08
2023-04-05T18:41:15.781Z,44.72
2023-04-05T18:43:18.708Z,33.05
2023-04-05T18:45:22.879Z,34.35
2023-04-05T18:47:25.610Z,45.88
2023-04-05T18:49:28.487Z,31.63
2023-04-05T18:51:32.005Z,46.85
2023-04-05T18:53:34.752Z,35.38
2023-04-05T18:55:37.580Z,28.52
2023-04-05T18:57:40.460Z,35.95
2023-04-05T18:59:43.235Z,38.47
2023-04-05T19:01:46.175Z,40.95
2023-04-05T19:03:50.510Z,29.52
2023-04-05T19:05:54.006Z,27.33
2023-04-05T19:07:56.731Z,37.63
2023-04-05T19:09:59.541Z,27.85
2023-04-05T19:12:02.191Z,39.72
2023-04-05T19:14:04.884Z,24.88
2023-04-05T19:16:07.868Z,38.25
2023-04-05T19:18:11.397Z,27.17
2023-04-05T19:20:14.095Z,46.80
2023-04-05T19:22:16.730Z,19.33
2023-04-05T19:24:21.139Z,25.95
2023-04-05T19:26:23.893Z,30.88
2023-04-05T19:28:29.877Z,34.83
2023-04-05T19:30:32.603Z,38.88
2023-04-05T19:32:35.500Z,39.15
2023-04-05T19:34:39.159Z,33.67
2023-04-05T19:36:41.817Z,34.08
2023-04-05T19:38:44.523Z,23.98
2023-04-05T19:40:47.112Z,30.73
2023-04-05T19:42:49.925Z,26.05
2023-04-05T19:45:00.702Z,29.95
2023-04-05T19:47:09.947Z,45.58
2023-04-05T19:49:17.084Z,48.38
2023-04-05T19:51:28.793Z,23.30
2023-04-05T19:53:39.761Z,29.30
2023-04-05T19:55:42.501Z,32.08
2023-04-05T19:57:45.019Z,27.88
2023-04-05T19:59:47.694Z,29.65
2023-04-05T20:01:51.061Z,33.08
2023-04-05T20:03:53.805Z,34.63
2023-04-05T20:06:17.055Z,27.77
2023-04-05T20:08:19.895Z,28.33
2023-04-05T20:10:41.004Z,24.52
2023-04-05T20:12:43.701Z,22.23
2023-04-05T20:14:46.864Z,37.72
2023-04-05T20:16:49.970Z,26.67
2023-04-05T20:18:54.354Z,33.08
2023-04-05T20:20:57.136Z,32.17
2023-04-05T20:22:59.825Z,27.73
2023-04-05T20:25:31.979Z,37.35
2023-04-05T20:29:36.982Z,39.28
2023-04-05T20:31:40.260Z,32.67
2023-04-05T20:33:47.429Z,24.27
2023-04-05T20:35:51.591Z,23.75
2023-04-05T20:37:55.666Z,29.13
2023-04-05T20:39:58.673Z,19.30
2023-04-05T20:42:01.865Z,33.15
2023-04-05T20:44:04.680Z,21.25
2023-04-05T20:46:08.292Z,34.38
2023-04-05T20:48:14.151Z,28.00
2023-04-05T20:50:17.793Z,25.88
2023-04-05T20:52:21.036Z,19.98
2023-04-05T20:54:24.400Z,29.90
2023-04-05T20:56:40.742Z,28.48
2023-04-05T20:58:43.471Z,40.22
2023-04-05T21:00:46.067Z,32.75
2023-04-05T21:02:49.089Z,26.15
2023-04-05T21:04:51.860Z,17.45
2023-04-05T21:06:54.506Z,25.83
2023-04-05T21:08:57.265Z,35.13
2023-04-05T21:11:00.217Z,19.20
2023-04-05T21:13:02.862Z,22.55
2023-04-05T21:15:06.097Z,18.20
2023-04-05T21:17:08.818Z,24.23
2023-04-05T21:19:11.430Z,33.30
2023-04-05T21:21:14.226Z,22.80
2023-04-05T21:23:27.870Z,22.58
2023-04-05T21:25:33.658Z,21.75
2023-04-05T21:27:36.437Z,21.40
2023-04-05T21:29:39.123Z,23.27
2023-04-05T21:31:41.930Z,18.77
2023-04-05T21:33:44.599Z,20.58
2023-04-05T21:35:47.321Z,18.63
2023-04-05T21:37:50.727Z,14.18
2023-04-05T21:39:53.306Z,16.73
2023-04-05T21:41:56.264Z,38.10
2023-04-05T21:43:58.935Z,19.35
2023-04-05T21:46:01.632Z,27.85
2023-04-05T21:48:04.590Z,15.80
2023-04-05T21:50:08.440Z,22.95
2023-04-05T21:52:11.221Z,13.27
2023-04-05T21:54:13.883Z,18.58
2023-04-05T21:56:16.819Z,15.80
2023-04-05T21:58:19.601Z,11.27
2023-04-05T22:00:22.570Z,11.95
2023-04-05T22:02:25.469Z,14.60
2023-04-05T22:04:29.275Z,14.88
2023-04-05T22:06:31.974Z,14.32
2023-04-05T22:08:34.626Z,16.85
2023-04-05T22:10:37.481Z,15.40
2023-04-05T22:12:40.249Z,18.35
2023-04-05T22:14:42.918Z,24.33
2023-04-05T22:16:45.653Z,16.17
2023-04-05T22:18:48.262Z,19.02
2023-04-05T22:20:50.912Z,17.85
2023-04-05T22:22:53.752Z,9.93
2023-04-05T22:24:56.438Z,14.52
2023-04-05T22:26:59.222Z,16.52
2023-04-05T22:29:02.720Z,17.63
2023-04-05T22:31:05.463Z,20.35
2023-04-05T22:33:08.619Z,18.15
2023-04-05T22:35:11.380Z,17.90
2023-04-05T22:37:14.086Z,12.98
2023-04-05T22:39:16.796Z,22.67
2023-04-05T22:41:19.549Z,15.43
2023-04-05T22:43:22.364Z,17.50
2023-04-05T22:45:28.829Z,8.75
2023-04-05T22:47:31.652Z,13.95
2023-04-05T22:49:34.415Z,9.95
2023-04-05T22:51:37.112Z,12.80
2023-04-05T22:53:43.431Z,5.90
2023-04-05T22:55:46.237Z,8.65
2023-04-05T22:57:49.933Z,10.60
2023-04-05T22:59:52.599Z,10.05
2023-04-05T23:01:55.370Z,10.90
2023-04-05T23:03:58.049Z,19.45
2023-04-05T23:06:00.808Z,16.45
2023-04-05T23:08:04.130Z,13.43
2023-04-05T23:10:07.412Z,12.77
2023-04-05T23:12:11.331Z,11.15
2023-04-05T23:14:14.083Z,13.15
2023-04-05T23:16:17.187Z,13.10
2023-04-05T23:18:23.192Z,8.70
2023-04-05T23:20:25.787Z,7.13
2023-04-05T23:22:28.500Z,6.85
2023-04-05T23:24:31.366Z,10.25
2023-04-05T23:26:34.537Z,10.00
2023-04-05T23:28:37.256Z,15.23
2023-04-05T23:30:40.019Z,16.38
2023-04-05T23:32:42.866Z,15.27
2023-04-05T23:34:45.740Z,13.40
2023-04-05T23:36:48.402Z,12.95
2023-04-05T23:38:51.310Z,8.65
2023-04-05T23:40:53.925Z,15.27
2023-04-05T23:42:56.721Z,4.53
2023-04-05T23:45:02.136Z,13.77
2023-04-05T23:47:05.842Z,6.45
2023-04-05T23:49:08.799Z,9.27
2023-04-05T23:51:11.899Z,7.10
2023-04-05T23:53:14.590Z,9.93
2023-04-05T23:55:17.270Z,16.38
2023-04-05T23:57:19.890Z,14.93
2023-04-05T23:59:22.630Z,9.80
